Мобильная версия
Войти

Что там со столкнувшимися ИЛ-76?

 ↓ ВНИЗ

12..303132

Жоржъ Милославский
15.01.2009 22:02
Пактор
15.01.2009 22:03
В аэропорту Махачкалы в четверг вечером столкнулись два транспортных самолета Ил-76. Об этом сообщает "Интерфакс" со ссылкой на дежурную часть линейного отдела внутренних дел на транспорте махачкалинского аэропорта.

"Самолеты столкнулись на взлетно-посадочной полосе приблизительно в 20:00 мск. Возникший от столкновения пожар уже потушен, на месте работают спасатели. Данных о пострадавших нет", - сообщил оперативный дежурный.

В свою очередь, источник в правоохранительных органах Дагестана не исключил, что в ходе аварии могут быть пострадавшие и даже жертвы.

Он рассказал следующее: "один из бортов выгрузил военнослужащих ВВ МВД России и оборудование, и пошел на взлет". "Второй Ил-76 заходил в это время на посадку, когда произошло столкновение. Во вором самолете также находились военные", - сообщил источник.

По самым последним данным от очередного источника в органах, среди членов экипажей трое погибших, еще трое раненых.

http://www.newsru.com/russia/1 ...
Жоржъ Милославский
15.01.2009 22:03
15.01.2009 21:35 : В аэропорту Махачкалы в четверг вечером столкнулись два транспортных самолета Ил-76

В аэропорту Махачкалы в четверг вечером столкнулись два транспортных самолета Ил-76, сообщили "Интерфаксу" в дежурной части линейного отдела внутренних дел на транспорте махачкалинского аэропорта.

"Самолеты столкнулись на взлетно-посадочной полосе приблизительно в 20:00 мск. Возникший от столкновения пожар уже потушен, на месте работают спасатели. Данных о пострадавших нет", - сообщил оперативный дежурный.
Кук
15.01.2009 22:04
А что там?
beacon
15.01.2009 22:05
Два самолета столкнулись в аэропорту Махачкалы. Есть жертвы. Пока другой информации нет...
Жоржъ Милославский
15.01.2009 22:07
Взлёт-посадка, полоса.
Тенерифе 1977.
Ладно, будем ждать. Гадать смысла нет.
kvf105
15.01.2009 22:11
Сказали трое уже есть((((
вта
15.01.2009 22:15
Чьи борта???
Псков, Смоленск?
Абакан
15.01.2009 22:15
По предварительным сведениям, МВД-шные борты. Погибших как минимум 3, но говорят и о 5.
Из Стригино? Только там вроде есть 76-е внутренних войск. Соболезную родным погибших пилотов.
Надымчанин
15.01.2009 22:15
Вроде один экипаж погиб.

http://lenta.ru/news/2009/01/1 ...
kvf105
15.01.2009 22:17
Погибли стоявшие на исполнительном...(((((
Надымчанин
15.01.2009 22:17
Члены экипажа одного из столкнувшихся на ВПП Махачкалы Ил-76 погибли
http://www.rian.ru/incidents/2 ...
вта
15.01.2009 22:18
Непонятно, задел крылом, ветер сильный или минимум был?
вта
15.01.2009 22:20
Подскажите код Махачкалинского АП? Погоду посмотреть.
Надымчанин
15.01.2009 22:21
Сцуко , вроде уже и високосный год закончился , что за полоса пошла (((
kvf105
15.01.2009 22:22
А что погода..раз садили на борт....(пока по инфе не уточненной)
vv
15.01.2009 22:23
URML 151900Z 31002MPS 0200 R14/0550 FG VV001 01/01 Q1024 NOSIG RMK QBB050 QFE768 G/Z SC07
URML 151830Z 29003MPS 0550 R14/1100 VV001 FG 01/01 Q1024 NOSIG RMK QFE768 OBB050 G/Z SC07
URML 151800Z 00000MPS 0350 R14/0800 FZFG VV002 M01/M02 Q1024 NOSIG RMK QBB060 QFE768 G/Z SC07
URML 151730Z 16002MPS 2000 BR BKN004 M01/M02 Q1024 NOSIG RMK QFE768 G/Z SC07
URML 151700Z 17002MPS 4000 BR BKN004 M01/M02 Q1024 NOSIG RMK QFE768 G/Z SC07
URML 151630Z 15002MPS 4000 BR BKN004 M01/M02 Q1025 NOSIG RMK QFE768 G/Z SC07
URML 151637Z 1518/1603 14006G11MPS 3000 BR SCT007 BKN030 530001

TEMPO 1521/1603 0600 FG BR SCT002 BKN030
вта
15.01.2009 22:28
URML 151900Z 31002MPS 0200 R14/0550 FG VV001 01/01 Q1024 NOSIG RMK QBB050 QFE768 G/Z SC07

URML 151637Z 1518/1603 14006G11MPS 3000 BR SCT007 BKN030 530001

TEMPO 1521/1603 0600 FG BR SCT002 BKN030
Ацкий Аноним
15.01.2009 22:29
Может кто то полосу занял без команды?
Эх, ГА РФ
15.01.2009 22:30
Блин, да чтож это за безалаберность такая ...

Людей жаль конечно .....
kvf105
15.01.2009 22:30
Там вообще темная история начинается....никого не пускают...инфу закрыли....ни скорые ни МЧС...все нон-грата(((
вта
15.01.2009 22:30
Пока трудно сказать. Видимость неочень была, минимум.
KOT
15.01.2009 22:30
туман однако...
Жоржъ Милославский
15.01.2009 22:34
http://www.wikimapia.org/#lat= ...

Вроде этот аэропорт
kvf105
15.01.2009 22:34
Блин при чём тут туман...когда сожали на самоль выруливавший на исп...дальше надо писать...или и так всё ясно...простите...там что локаторы вне понятий вообще...ИМХО...кто сказал садись...и кто сказал..исполнительный
vv
15.01.2009 22:35
насчет полосы не уверен, не настолько местные диспетчера не владеют русским языком что бы что то не то выдать скорее всего погода стала портиться при полходе к ВПП и если уход на второй круг то соответственно и на запасной - в результате отклонились от курса и на ВПР все еще не видя полосу продолжили заход в результате зацепили крылом кабину стоявшего на предварительном борта а наскорости примерно250 или около того этого достаточно что бы кабину полностью разрушить , но это всего лишь версия подробностей пока вообще никаких нет
vv
15.01.2009 22:35
насчет полосы не уверен, не настолько местные диспетчера не владеют русским языком что бы что то не то выдать скорее всего погода стала портиться при полходе к ВПП и если уход на второй круг то соответственно и на запасной - в результате отклонились от курса и на ВПР все еще не видя полосу продолжили заход в результате зацепили крылом кабину стоявшего на предварительном борта а наскорости примерно250 или около того этого достаточно что бы кабину полностью разрушить , но это всего лишь версия подробностей пока вообще никаких нет
вта
15.01.2009 22:36
Там вроде выход на полосу в середине. Мож и ошибаюсь. Но тогда непонято. Щас там вообще туман.

ICAO : URML
Station Name : Uytash
Country : Russian Federation
Location : 42-49N 047-39E
Elevation : 4m
Time : 15 / 19:00Z
Temperature : 1.0°C
Dew Point : 1.0°C
RH : 100%
Wind : NW (310 degrees) at 2 m/s
Visibility : 200m
Pressure : 768.1 mm Hg
Sky Condition : Vertical Visibility at 30m
Weather : Fog


KOT
15.01.2009 22:36
вот я и говорю - туман однако.
oldnavy
15.01.2009 22:37
Может кто то полосу занял без команды?

А может кто заходил на посадку без разрешения, а можа кто минимум нарушил, а можа вообще кто-нить садился не на том аэродроме...
Вам еще не надоело всякую ересь писать? ...высасывать факты из...
Дождитесь хоть какой-то официальной информации, а потом ужо и строчите свои посты...
ContAir
15.01.2009 22:37
vv
15.01.2009 22:38
упс- че то два раза прошло
KOT
15.01.2009 22:38
щас инфа от очевидцев начнет просачиваться... надо подождать, гадать не стоит.
вта
15.01.2009 22:38
Версия ухода на второй возможна , но разится с инфой что заходящий борт загорелся, тогда там бы все.......
Надо ждать более достоверной инфы.
Кузьмич
15.01.2009 22:42
На 22 часа дают
5/200
1/300
якобы все - экипаж рулившего
KOT
15.01.2009 22:42
от мля... похоже кабину к едреной матери крылом снесло и угробило экипаж... учитывая то что оба самолета перевозили солдатиков, все могло бы закончится намного хуже...

...земля пухом.
vv
15.01.2009 22:42
точно в махачкале 2 РД 1 и 2 но они в центре ВПП а в торцах "карманы" для разворотов так что ч знает что и как
вта
15.01.2009 22:42
oldnavy:
Там нет рядом аэродрома, это не Баку-Бина и Насосная или Раманское- Быково.
вта
15.01.2009 22:44
http://www.wikimapia.org/#lat= ...
ссылочку подкинули мне , вот аэродром.
Блин.Даже неверится.((((((((
ТРАЙБЕКА
15.01.2009 22:46
Валерий, что-то не открывается... у меня...
а мне ещё не 60...
15.01.2009 22:47
уйташ---там один аэропорт.по ЗВЕЗДЕ сказали 5 погибло.Ждите новости.Борта или из нижнего или ермолино, там только ИЛ-76 у вв мвд.
Р Е В Е Р С
15.01.2009 22:49
Понятно. Тот который стоял на РД вылез носом на полосу. После посадки на пробеге другой снёс ему кабину экипажа. Все кто был в кабине погибли. Ох, плять!
вта
15.01.2009 22:51
если оба борта на земле то похоже именно на пробеге снёс кабину.
Жоржъ Милославский
15.01.2009 22:51
Олег ну даже тут видно желтый ограничитель

http://www.wikimapia.org/#lat= ...

Он же далече от полосы.
Я понять не могу ЗАЧЕМ морду высовывать?
KOT
15.01.2009 22:52
реверс: так и поодумалось...
KOT
15.01.2009 22:55
интерфакс пишет: "Во время посадки самолет порывом ветра снесло с траектории, и он задел крылом находившийся на рулении второй борт."

http://www.interfax.ru/society ...
1462
15.01.2009 22:58
снесло с полосы сто процентов, другово варианта нет, минимум посадка с перелётом, крены на посадке, видимость плахая, вот и результат, очень печально
Alex Skyboy
15.01.2009 22:59
вта:

Чьи борта???
Псков, Смоленск?


Может Ефремово или Нижний?
вта
15.01.2009 23:01
Могли и ошибитьсяс номером РД и пытались освободить полосу не там, увидев не успели отвернуть .
1462
15.01.2009 23:03
на второй круг и запасной надо уходить, видимости вообще нет, ну почему всё на авось, ведь люди на борту к чему геройства
12..303132





 

 

 

 

← На главную страницу

Чтобы публиковать комментарии, вы должны войти на сайт.

Реклама на сайте Обратная связь/Связаться с администрацией
Рейтинг@Mail.ru